Time;durP1;ratioP1;P1;durP2;ratioP2;P2;SDS_P1;SDS_P2;PMS_P1;PMS_P2;Temp;Humidity;BMP_temperature;BMP_pressure;BME280_temperature;BME280_humidity;BME280_pressure;Samples;Min_cycle;Max_cycle;Signal;HPM_P1;HPM_P2
2021/08/24 00:01:02;;;;;;;;;12.25;8.50;;;;;19.30;100.00;102194.53;5079378;27;45508;-71
2021/08/24 00:03:27;;;;;;;;;11.00;10.00;;;;;19.32;100.00;102190.06;5091863;27;45597;-71
2021/08/24 00:05:53;;;;;;;;;9.00;9.00;;;;;19.28;100.00;102198.09;5078688;27;45383;-71
2021/08/24 00:08:18;;;;;;;;;8.50;8.00;;;;;19.33;100.00;102199.75;5092944;27;45260;-72
2021/08/24 00:10:56;;;;;;;;;10.00;8.75;;;;;19.30;100.00;102192.75;5089312;27;46459;-71
2021/08/24 00:13:24;;;;;;;;;10.00;9.00;;;;;19.30;100.00;102200.69;5078554;27;45554;-71
2021/08/24 00:15:50;;;;;;;;;9.00;8.50;;;;;19.30;100.00;102191.88;5078536;27;45505;-70
2021/08/24 00:18:17;;;;;;;;;10.75;10.00;;;;;19.27;100.00;102193.72;5094095;27;45528;-71
2021/08/24 00:20:45;;;;;;;;;13.50;10.00;;;;;19.24;100.00;102185.84;5078165;27;45507;-70
2021/08/24 00:23:13;;;;;;;;;10.25;8.75;;;;;19.24;100.00;102191.16;5078380;27;45307;-69
2021/08/24 00:25:38;;;;;;;;;10.25;10.00;;;;;19.24;100.00;102191.16;5078494;27;45208;-71
2021/08/24 00:28:05;;;;;;;;;11.75;10.00;;;;;19.22;100.00;102190.28;5078455;27;45438;-71
2021/08/24 00:30:30;;;;;;;;;10.75;9.50;;;;;19.20;100.00;102194.75;5077787;27;45344;-69
2021/08/24 00:32:56;;;;;;;;;14.50;11.00;;;;;19.18;100.00;102182.47;5078059;27;45410;-70
2021/08/24 00:35:22;;;;;;;;;13.75;13.00;;;;;19.21;100.00;102192.97;5078264;27;45594;-70
2021/08/24 00:37:47;;;;;;;;;12.75;10.00;;;;;19.20;100.00;102191.25;5078077;27;45430;-70
2021/08/24 00:40:15;;;;;;;;;10.75;10.00;;;;;19.18;100.00;102185.13;5076473;27;46731;-70
2021/08/24 00:42:41;;;;;;;;;12.00;9.50;;;;;19.15;100.00;102190.50;5092109;27;45403;-70
2021/08/24 00:45:09;;;;;;;;;8.25;8.25;;;;;19.18;100.00;102190.41;5083457;27;45243;-70
2021/08/24 00:47:39;;;;;;;;;12.00;11.50;;;;;19.17;100.00;102199.28;5077855;27;45594;-69
2021/08/24 00:50:26;;;;;;;;;10.75;10.00;;;;;19.17;100.00;102200.13;5086722;27;45432;-70
2021/08/24 00:52:54;;;;;;;;;11.25;11.00;;;;;19.18;100.00;102190.41;5095743;27;45739;-71
2021/08/24 00:55:21;;;;;;;;;13.50;11.50;;;;;19.18;100.00;102190.41;5076561;27;45248;-70
2021/08/24 00:57:54;;;;;;;;;15.75;12.00;;;;;19.15;100.00;102177.25;5078017;27;45320;-70
2021/08/24 01:00:19;;;;;;;;;11.00;10.00;;;;;19.17;100.00;102189.56;5086976;27;46688;-70
2021/08/24 01:02:45;;;;;;;;;13.50;10.75;;;;;19.14;100.00;102176.41;5096581;27;45385;-70
2021/08/24 01:05:11;;;;;;;;;10.25;10.25;;;;;19.15;100.00;102178.13;5076438;27;45400;-70
2021/08/24 01:07:46;;;;;;;;;11.50;10.50;;;;;19.17;100.00;102181.59;5077861;27;45584;-70
2021/08/24 01:10:18;;;;;;;;;9.75;9.25;;;;;19.17;100.00;102178.97;5099750;27;47406;-71
2021/08/24 01:13:04;;;;;;;;;13.00;11.25;;;;;19.13;100.00;102171.16;5084288;27;45313;-70
2021/08/24 01:15:36;;;;;;;;;10.00;9.50;;;;;19.15;100.00;102171.97;5077786;27;45220;-71
2021/08/24 01:18:23;;;;;;;;;12.50;11.50;;;;;19.11;100.00;102175.63;5092874;27;45355;-70
2021/08/24 01:20:51;;;;;;;;;12.00;11.75;;;;;19.11;100.00;102170.31;5087759;27;45515;-71
2021/08/24 01:23:29;;;;;;;;;11.00;9.50;;;;;19.10;100.00;102173.88;5076984;27;45319;-71
2021/08/24 01:26:09;;;;;;;;;13.50;12.25;;;;;19.06;100.00;102162.50;5077556;27;45334;-71
2021/08/24 01:28:44;;;;;;;;;15.00;11.25;;;;;19.06;100.00;102177.53;5081165;27;45471;-70
2021/08/24 01:31:40;;;;;;;;;15.50;11.00;;;;;18.98;100.00;102167.97;5086285;27;45522;-71
2021/08/24 01:34:27;;;;;;;;;9.75;9.25;;;;;19.02;100.00;102171.44;5076910;27;45616;-71
2021/08/24 01:37:12;;;;;;;;;10.25;10.25;;;;;18.92;100.00;102160.22;5089126;27;45287;-70
2021/08/24 01:39:49;;;;;;;;;12.75;11.00;;;;;18.95;100.00;102164.56;5090738;27;45442;-71
2021/08/24 01:42:24;;;;;;;;;12.00;11.00;;;;;18.95;100.00;102164.56;5086522;27;46570;-70
2021/08/24 01:45:11;;;;;;;;;11.50;10.75;;;;;18.93;100.00;102166.38;5097595;27;45319;-70
2021/08/24 01:47:50;;;;;;;;;17.25;13.75;;;;;18.92;100.00;102169.94;5081030;27;45426;-71
2021/08/24 01:50:22;;;;;;;;;18.50;13.00;;;;;18.76;100.00;102137.69;5087675;27;45368;-70
2021/08/24 01:53:08;;;;;;;;;12.00;10.00;;;;;18.88;100.00;102158.56;5082571;27;45170;-71
2021/08/24 01:55:42;;;;;;;;;14.75;12.00;;;;;18.88;100.00;102162.97;5085282;27;45335;-71
2021/08/24 01:58:16;;;;;;;;;18.25;14.50;;;;;18.86;100.00;102160.38;5091383;27;45331;-70
2021/08/24 02:00:45;;;;;;;;;15.75;15.00;;;;;18.85;100.00;102173.66;5084832;27;45371;-71
2021/08/24 02:03:15;;;;;;;;;15.25;13.75;;;;;18.77;100.00;102152.66;5076405;27;46510;-71
2021/08/24 02:05:42;;;;;;;;;15.25;14.00;;;;;18.80;100.00;102171.13;5088343;27;45409;-71
2021/08/24 02:08:12;;;;;;;;;15.75;14.75;;;;;18.78;100.00;102170.28;5079504;27;45431;-71
2021/08/24 02:10:40;;;;;;;;;19.75;15.75;;;;;18.73;100.00;102163.38;5077044;27;45332;-71
2021/08/24 02:13:07;;;;;;;;;18.50;18.00;;;;;18.75;100.00;102167.72;5076649;27;45580;-71
2021/08/24 02:15:38;;;;;;;;;16.75;15.00;;;;;18.74;100.00;102175.69;5085332;27;45289;-71
2021/08/24 02:18:06;;;;;;;;;20.50;17.25;;;;;18.73;100.00;102174.81;5081513;27;45371;-71
2021/08/24 02:20:43;;;;;;;;;23.75;20.75;;;;;18.74;100.00;102171.25;5079799;27;45278;-71
2021/08/24 02:23:23;;;;;;;;;19.75;18.25;;;;;18.72;100.00;102173.09;5091646;27;46985;-71
2021/08/24 02:25:52;;;;;;;;;15.25;15.25;;;;;18.62;100.00;102158.31;5087943;27;45373;-72
2021/08/24 02:28:23;;;;;;;;;20.25;19.75;;;;;18.64;100.00;102162.69;5090640;27;45333;-71
2021/08/24 02:30:57;;;;;;;;;23.25;19.75;;;;;18.70;100.00;102174.03;5100447;27;45334;-71
2021/08/24 02:33:29;;;;;;;;;23.75;20.50;;;;;18.59;100.00;102156.63;5091942;27;47435;-72
2021/08/24 02:36:01;;;;;;;;;21.25;19.50;;;;;18.67;100.00;102169.69;5080370;27;45796;-72
2021/08/24 02:38:28;;;;;;;;;22.25;20.75;;;;;18.73;100.00;102171.31;5087343;27;45349;-71
2021/08/24 02:41:02;;;;;;;;;22.00;21.25;;;;;18.75;100.00;102177.44;5085217;27;45525;-71
2021/08/24 02:44:05;;;;;;;;;24.00;22.00;;;;;18.76;100.00;102173.88;5079898;27;46518;-72
2021/08/24 02:46:39;;;;;;;;;23.50;21.00;;;;;18.74;100.00;102167.75;5076196;27;45286;-71
2021/08/24 02:49:13;;;;;;;;;26.25;23.25;;;;;18.77;100.00;102178.25;5076810;27;45497;-71
2021/08/24 02:51:39;;;;;;;;;26.00;24.00;;;;;18.68;100.00;102163.50;5079928;27;45526;-71
2021/08/24 02:54:18;;;;;;;;;27.50;24.00;;;;;18.73;100.00;102173.94;5079682;27;46552;-71
2021/08/24 02:56:44;;;;;;;;;25.50;24.00;;;;;18.74;100.00;102180.97;5093922;27;45360;-72
2021/08/24 02:59:10;;;;;;;;;25.75;24.50;;;;;18.65;100.00;102172.38;5087348;27;45303;-71
2021/08/24 03:01:38;;;;;;;;;29.25;26.25;;;;;18.70;100.00;102174.91;5086571;27;45344;-72
2021/08/24 03:04:05;;;;;;;;;24.50;24.50;;;;;18.68;100.00;102184.66;5079085;27;46539;-71
2021/08/24 03:06:35;;;;;;;;;30.00;26.25;;;;;18.71;100.00;102181.06;5091539;27;45792;-72
2021/08/24 03:09:00;;;;;;;;;29.50;24.75;;;;;18.71;100.00;102176.63;5081008;27;45316;-72
2021/08/24 03:11:32;;;;;;;;;27.25;26.25;;;;;18.71;100.00;102176.63;5090313;27;45313;-71
2021/08/24 03:14:24;;;;;;;;;35.50;25.75;;;;;18.67;100.00;102173.22;5096416;27;45322;-72
2021/08/24 03:16:57;;;;;;;;;30.25;26.00;;;;;18.64;100.00;102162.69;5069292;28;45357;-72
2021/08/24 03:19:26;;;;;;;;;28.75;26.25;;;;;18.63;100.00;102168.03;5077194;28;45483;-71
2021/08/24 03:21:54;;;;;;;;;27.00;25.75;;;;;18.59;100.00;102161.91;5060222;28;45435;-72
2021/08/24 03:24:20;;;;;;;;;33.00;26.50;;;;;18.59;100.00;102164.56;5062630;28;45540;-71
2021/08/24 03:26:47;;;;;;;;;29.50;27.00;;;;;18.52;100.00;102156.81;5077076;28;45771;-72
2021/08/24 03:29:16;;;;;;;;;35.75;29.50;;;;;18.41;100.00;102143.84;5076408;28;45416;-70
2021/08/24 03:31:41;;;;;;;;;32.25;26.00;;;;;18.49;100.00;102165.69;5068551;28;45468;-68
2021/08/24 03:34:08;;;;;;;;;29.25;24.75;;;;;18.50;100.00;102164.78;5070998;28;45289;-72
2021/08/24 03:36:34;;;;;;;;;34.00;31.25;;;;;18.47;100.00;102175.44;5076952;28;45336;-72
2021/08/24 03:38:59;;;;;;;;;36.50;31.50;;;;;18.39;100.00;102164.19;5076725;28;45403;-71
2021/08/24 03:41:25;;;;;;;;;32.50;29.00;;;;;18.40;100.00;102157.13;5076893;28;45530;-72
2021/08/24 03:43:51;;;;;;;;;36.50;31.00;;;;;18.40;100.00;102170.34;5059273;28;47586;-72
2021/08/24 03:46:17;;;;;;;;;32.25;29.50;;;;;18.38;100.00;102162.44;5074580;28;45444;-72
2021/08/24 03:48:42;;;;;;;;;30.25;27.25;;;;;18.37;100.00;102163.34;5064325;28;45356;-71
2021/08/24 03:51:08;;;;;;;;;31.00;28.25;;;;;18.33;100.00;102159.00;5077038;28;45430;-72
2021/08/24 03:53:33;;;;;;;;;35.00;31.25;;;;;18.27;100.00;102151.22;5077050;27;45449;-72
2021/08/24 03:55:59;;;;;;;;;29.25;27.75;;;;;18.29;100.00;102155.56;5078729;27;45345;-72
2021/08/24 03:58:24;;;;;;;;;29.25;26.75;;;;;18.28;100.00;102160.91;5096484;27;45323;-72
2021/08/24 04:00:50;;;;;;;;;31.50;28.50;;;;;18.26;100.00;102160.94;5089194;27;45300;-72
2021/08/24 04:03:16;;;;;;;;;31.50;28.75;;;;;18.25;100.00;102166.25;5079765;27;46453;-72
2021/08/24 04:05:41;;;;;;;;;33.25;28.25;;;;;18.20;100.00;102155.81;5091633;27;45267;-72
2021/08/24 04:08:07;;;;;;;;;33.00;27.75;;;;;18.21;100.00;102168.13;5077352;27;45554;-72
2021/08/24 04:10:33;;;;;;;;;33.75;30.50;;;;;18.20;100.00;102166.38;5084001;27;45367;-71
2021/08/24 04:12:58;;;;;;;;;32.50;29.00;;;;;18.19;100.00;102169.06;5087084;27;45353;-72
2021/08/24 04:15:24;;;;;;;;;33.50;28.00;;;;;18.19;100.00;102171.72;5081349;27;45286;-72
2021/08/24 04:17:49;;;;;;;;;37.00;29.50;;;;;18.15;100.00;102170.91;5089120;27;45303;-72
2021/08/24 04:20:16;;;;;;;;;29.50;25.75;;;;;18.08;100.00;102158.72;5078409;27;45323;-71
2021/08/24 04:22:47;;;;;;;;;34.25;30.25;;;;;18.08;100.00;102169.28;5076718;27;47358;-67
2021/08/24 04:25:16;;;;;;;;;30.25;28.00;;;;;18.13;100.00;102185.06;5092688;27;45462;-71
2021/08/24 04:27:43;;;;;;;;;32.75;28.75;;;;;18.06;100.00;102171.09;5084951;27;45295;-69
2021/08/24 04:30:10;;;;;;;;;28.75;26.00;;;;;18.08;100.00;102181.63;5098421;27;45610;-71
2021/08/24 04:32:40;;;;;;;;;34.75;31.50;;;;;18.02;100.00;102180.88;5083579;27;45419;-72
2021/08/24 04:35:06;;;;;;;;;32.00;28.25;;;;;18.03;100.00;102185.25;5086699;27;45469;-71
2021/08/24 04:37:32;;;;;;;;;30.75;29.00;;;;;17.99;100.00;102180.94;5076661;27;45428;-72
2021/08/24 04:39:57;;;;;;;;;26.75;25.75;;;;;18.02;100.00;102188.81;5087761;27;45396;-72
2021/08/24 04:42:22;;;;;;;;;31.75;30.00;;;;;18.00;100.00;102184.47;5083746;27;46505;-71
2021/08/24 04:44:48;;;;;;;;;28.25;25.50;;;;;17.95;100.00;102178.41;5098036;27;45407;-71
2021/08/24 04:47:13;;;;;;;;;33.25;27.00;;;;;17.91;100.00;102182.91;5084734;27;45449;-71
2021/08/24 04:49:39;;;;;;;;;30.00;28.00;;;;;17.94;100.00;102188.13;5077913;27;45383;-71
2021/08/24 04:52:05;;;;;;;;;29.75;26.50;;;;;17.92;100.00;102181.13;5077811;27;46276;-72
2021/08/24 04:54:35;;;;;;;;;28.00;25.00;;;;;17.93;100.00;102189.03;5077694;27;45559;-71
2021/08/24 04:57:02;;;;;;;;;29.00;27.00;;;;;17.92;100.00;102189.94;5084049;27;45361;-71
2021/08/24 04:59:28;;;;;;;;;29.25;25.25;;;;;17.92;100.00;102192.56;5098104;27;45428;-70
2021/08/24 05:01:54;;;;;;;;;31.00;27.75;;;;;17.92;100.00;102192.56;5083144;27;45398;-71
2021/08/24 05:04:19;;;;;;;;;28.75;27.25;;;;;17.90;100.00;102197.00;5087716;27;45386;-71
2021/08/24 05:06:44;;;;;;;;;29.25;27.50;;;;;17.88;100.00;102188.25;5092863;27;45328;-71
2021/08/24 05:09:10;;;;;;;;;26.50;25.50;;;;;17.92;100.00;102195.22;5096908;27;45376;-70
2021/08/24 05:11:35;;;;;;;;;31.25;29.00;;;;;17.93;100.00;102196.94;5083061;27;46174;-70
2021/08/24 05:14:01;;;;;;;;;27.25;26.00;;;;;17.93;100.00;102199.59;5090988;27;45326;-71
2021/08/24 05:16:26;;;;;;;;;30.50;28.75;;;;;17.95;100.00;102202.19;5077325;27;45319;-71
2021/08/24 05:18:52;;;;;;;;;24.50;23.25;;;;;17.94;100.00;102195.16;5077472;27;45245;-72
2021/08/24 05:21:19;;;;;;;;;27.25;25.75;;;;;17.97;100.00;102203.91;5087314;27;46146;-71
2021/08/24 05:23:44;;;;;;;;;28.00;26.00;;;;;17.97;100.00;102203.91;5094139;27;45775;-71
2021/08/24 05:26:16;;;;;;;;;27.75;25.00;;;;;17.97;100.00;102201.25;5077607;27;45485;-71
2021/08/24 05:28:42;;;;;;;;;27.75;26.25;;;;;18.00;100.00;102209.13;5077116;27;45573;-68
2021/08/24 05:31:08;;;;;;;;;28.25;27.50;;;;;18.02;100.00;102202.03;5083796;27;45449;-71
2021/08/24 05:33:34;;;;;;;;;26.75;25.50;;;;;18.06;100.00;102211.63;5092799;27;45451;-72
2021/08/24 05:36:01;;;;;;;;;22.25;21.25;;;;;18.08;100.00;102216.88;5096219;27;45632;-71
2021/08/24 05:38:27;;;;;;;;;28.75;25.00;;;;;18.09;100.00;102209.81;5086584;27;45695;-71
2021/08/24 05:40:55;;;;;;;;;26.75;24.75;;;;;18.09;100.00;102202.75;5076930;27;45386;-72
2021/08/24 05:43:20;;;;;;;;;31.75;29.00;;;;;18.18;100.00;102218.41;5086203;27;45178;-71
2021/08/24 05:45:53;;;;;;;;;28.00;25.25;;;;;18.08;100.00;102189.56;5081514;27;45403;-72
2021/08/24 05:48:18;;;;;;;;;25.25;23.00;;;;;18.21;100.00;102215.72;5081379;27;45447;-70
2021/08/24 05:50:44;;;;;;;;;27.00;24.00;;;;;18.22;100.00;102206.00;5086892;27;46575;-71
2021/08/24 05:53:09;;;;;;;;;26.25;23.00;;;;;18.22;100.00;102208.66;5076802;27;45409;-72
2021/08/24 05:55:34;;;;;;;;;21.50;20.25;;;;;18.28;100.00;102214.66;5076990;27;45308;-72
2021/08/24 05:57:59;;;;;;;;;31.00;25.75;;;;;18.30;100.00;102214.63;5076917;27;45371;-69
2021/08/24 06:00:25;;;;;;;;;28.00;21.75;;;;;18.31;100.00;102206.66;5075203;27;47303;-72
2021/08/24 06:02:50;;;;;;;;;23.50;19.75;;;;;18.38;100.00;102212.69;5076729;27;45342;-72
2021/08/24 06:05:16;;;;;;;;;24.25;22.75;;;;;18.45;100.00;102218.69;5080748;27;45219;-73
2021/08/24 06:07:41;;;;;;;;;26.00;25.50;;;;;18.47;100.00;102220.41;5087179;27;45189;-73
2021/08/24 06:10:07;;;;;;;;;24.75;22.75;;;;;18.50;100.00;102219.44;5092594;27;46596;-73
2021/08/24 06:12:33;;;;;;;;;28.50;25.00;;;;;18.54;100.00;102227.28;5089001;27;45256;-72
2021/08/24 06:14:59;;;;;;;;;24.00;23.00;;;;;18.55;100.00;102221.06;5076606;27;45268;-72
2021/08/24 06:17:25;;;;;;;;;24.00;23.25;;;;;18.63;100.00;102223.59;5082679;27;45395;-72
2021/08/24 06:19:50;;;;;;;;;26.75;24.25;;;;;18.62;100.00;102219.19;5084629;27;45418;-70
2021/08/24 06:22:16;;;;;;;;;22.75;21.50;;;;;18.71;100.00;102226.03;5076287;27;45579;-71
2021/08/24 06:24:41;;;;;;;;;30.50;24.75;;;;;18.76;100.00;102222.38;5079321;27;45295;-72
2021/08/24 06:27:07;;;;;;;;;27.25;26.00;;;;;18.84;100.00;102230.13;5082013;27;45367;-73
2021/08/24 06:29:33;;;;;;;;;26.00;25.25;;;;;18.88;100.00;102219.44;5100184;27;45298;-73
2021/08/24 06:32:04;;;;;;;;;24.25;22.75;;;;;18.89;100.00;102217.66;5086156;27;45531;-72
2021/08/24 06:34:30;;;;;;;;;28.25;23.00;;;;;18.95;100.00;102212.19;5080201;27;45227;-72
2021/08/24 06:36:58;;;;;;;;;27.50;23.00;;;;;19.02;100.00;102212.94;5080353;27;45505;-73
2021/08/24 06:39:23;;;;;;;;;25.50;24.50;;;;;18.98;100.00;102201.53;5092688;27;45664;-73
2021/08/24 06:41:49;;;;;;;;;26.75;24.00;;;;;19.11;100.00;102216.19;5078359;27;45684;-72
2021/08/24 06:44:15;;;;;;;;;22.75;21.00;;;;;19.11;100.00;102208.25;5097189;27;45573;-73
2021/08/24 06:46:41;;;;;;;;;23.25;22.50;;;;;19.23;100.00;102215.00;5091431;27;45407;-73
2021/08/24 06:49:07;;;;;;;;;23.75;23.50;;;;;19.25;100.00;102210.56;5090579;27;47408;-73
2021/08/24 06:51:34;;;;;;;;;22.75;19.75;;;;;19.28;100.00;102208.69;5082499;27;45233;-72
2021/08/24 06:54:02;;;;;;;;;22.75;22.50;;;;;19.40;100.00;102215.41;5079904;27;45399;-72
2021/08/24 06:56:27;;;;;;;;;25.25;22.75;;;;;19.52;100.00;102224.81;5081026;27;45254;-73
2021/08/24 06:58:52;;;;;;;;;25.50;23.75;;;;;19.57;100.00;102223.81;5098589;27;48250;-73
2021/08/24 07:01:21;;;;;;;;;22.00;22.00;;;;;19.68;100.00;102226.13;5099819;27;45741;-73
2021/08/24 07:03:47;;;;;;;;;27.50;25.25;;;;;19.71;100.00;102215.47;5095211;27;45404;-73
2021/08/24 07:06:13;;;;;;;;;24.50;23.50;;;;;19.81;100.00;102226.66;5091548;27;45461;-71
2021/08/24 07:08:39;;;;;;;;;29.75;25.00;;;;;19.84;100.00;102219.50;5095847;27;45549;-71
2021/08/24 07:11:04;;;;;;;;;33.00;30.25;;;;;19.96;100.00;102223.56;5089295;27;45253;-72
2021/08/24 07:13:30;;;;;;;;;26.75;24.25;;;;;20.04;100.00;102226.84;5083620;27;45346;-72
2021/08/24 07:15:56;;;;;;;;;25.75;24.25;;;;;20.10;100.00;102226.66;5079334;27;45353;-69
2021/08/24 07:18:22;;;;;;;;;25.50;23.00;;;;;20.16;100.00;102228.28;5079291;27;46408;-73
2021/08/24 07:20:49;;;;;;;;;25.25;23.50;;;;;20.25;100.00;102229.78;5078984;27;45352;-72
2021/08/24 07:23:15;;;;;;;;;21.25;21.25;;;;;20.25;100.00;102214.72;5091621;27;45347;-72
2021/08/24 07:25:46;;;;;;;;;24.25;21.00;;;;;20.38;100.00;102226.72;5085526;27;45458;-71
2021/08/24 07:28:12;;;;;;;;;29.75;25.50;;;;;20.44;100.00;102231.84;5088542;27;45732;-73
2021/08/24 07:30:40;;;;;;;;;24.25;21.00;;;;;20.52;100.00;102225.41;5078598;27;45274;-71
2021/08/24 07:33:06;;;;;;;;;24.00;22.00;;;;;20.56;100.00;102224.41;5079018;27;45311;-72
2021/08/24 07:35:31;;;;;;;;;27.25;24.75;;;;;20.59;100.00;102230.47;5093821;27;45182;-69
2021/08/24 07:37:57;;;;;;;;;28.25;23.75;;;;;20.72;100.00;102229.16;5099414;27;45634;-71
2021/08/24 07:40:24;;;;;;;;;23.00;21.25;;;;;20.75;100.00;102231.72;5086120;27;45280;-71
2021/08/24 07:42:50;;;;;;;;;25.25;23.00;;;;;20.74;100.00;102213.19;5078650;27;45382;-72
2021/08/24 07:45:16;;;;;;;;;25.00;21.00;;;;;20.82;100.00;102216.47;5079161;27;45445;-72
2021/08/24 07:47:42;;;;;;;;;23.00;20.50;;;;;20.93;100.00;102222.28;5078554;27;46317;-72
2021/08/24 07:50:10;;;;;;;;;21.75;19.00;;;;;20.94;100.00;102221.34;5083959;27;45289;-72
2021/08/24 07:52:36;;;;;;;;;23.00;21.00;;;;;21.09;100.00;102222.63;5087362;27;45462;-72
2021/08/24 07:55:02;;;;;;;;;18.75;18.50;;;;;21.18;100.00;102217.00;5082417;27;45267;-72
2021/08/24 07:57:28;;;;;;;;;19.00;18.25;;;;;21.30;100.00;102221.06;5099048;27;45613;-72
2021/08/24 07:59:53;;;;;;;;;19.25;18.50;;;;;21.41;100.00;102218.88;5082873;27;45433;-73
2021/08/24 08:02:19;;;;;;;;;21.25;16.75;;;;;21.52;100.00;102222.03;5086466;27;45595;-72
2021/08/24 08:04:45;;;;;;;;;25.50;20.75;;;;;21.68;100.00;102230.28;5085317;27;45392;-72
2021/08/24 08:07:11;;;;;;;;;21.75;20.50;;;;;21.81;100.00;102223.59;5092468;27;47318;-72
2021/08/24 08:09:37;;;;;;;;;21.50;19.25;;;;;21.88;100.00;102218.91;5078546;27;45419;-72
2021/08/24 08:12:03;;;;;;;;;19.50;18.00;;;;;22.02;100.00;102216.59;5078391;27;45597;-72
2021/08/24 08:14:29;;;;;;;;;18.50;18.25;;;;;22.16;100.00;102206.31;5077349;27;45331;-72
2021/08/24 08:16:54;;;;;;;;;19.75;17.75;;;;;22.37;100.00;102211.72;5079768;27;45578;-69
2021/08/24 08:19:20;;;;;;;;;15.50;15.25;;;;;22.53;100.00;102212.84;5090963;27;45276;-71
2021/08/24 08:21:45;;;;;;;;;15.50;14.75;;;;;22.75;100.00;102220.81;5078398;27;45461;-71
2021/08/24 08:24:11;;;;;;;;;15.00;15.00;;;;;22.88;100.00;102212.28;5084109;27;45457;-72
2021/08/24 08:26:38;;;;;;;;;17.00;15.00;;;;;23.10;100.00;102216.69;5097226;27;46305;-72
2021/08/24 08:29:08;;;;;;;;;15.25;14.50;;;;;23.28;100.00;102218.53;5080039;27;45414;-72
2021/08/24 08:31:34;;;;;;;;;14.75;13.25;;;;;23.43;100.00;102203.69;5078162;27;45392;-72
2021/08/24 08:34:00;;;;;;;;;14.50;13.75;;;;;23.63;100.00;102219.69;5078295;27;45249;-72
2021/08/24 08:36:26;;;;;;;;;20.00;17.00;;;;;23.81;100.00;102221.50;5078129;27;46608;-72
2021/08/24 08:38:51;;;;;;;;;13.25;11.25;;;;;23.97;100.00;102218.13;5091085;27;46073;-71
2021/08/24 08:41:33;;;;;;;;;12.00;12.00;;;;;24.19;100.00;102218.84;5098280;27;45292;-71
2021/08/24 08:43:58;;;;;;;;;9.75;9.00;;;;;24.36;100.00;102221.59;5083543;27;45396;-71
2021/08/24 08:46:54;;;;;;;;;11.00;11.00;;;;;24.58;100.00;102223.22;5081013;27;45401;-72
2021/08/24 08:49:52;;;;;;;;;10.75;8.50;;;;;24.76;100.00;102226.78;5077756;27;45380;-71
2021/08/24 08:52:49;;;;;;;;;12.00;10.00;;;;;24.92;100.00;102220.59;5064609;28;45326;-71
2021/08/24 08:55:23;;;;;;;;;11.50;10.00;;;;;25.13;100.00;102223.16;5075655;28;45326;-71
2021/08/24 08:58:03;;;;;;;;;8.50;8.25;;;;;25.34;100.00;102216.66;5075551;28;47415;-70
2021/08/24 09:00:47;;;;;;;;;9.75;9.25;;;;;25.54;100.00;102218.28;5075473;28;45392;-70
2021/08/24 09:03:18;;;;;;;;;11.25;10.50;;;;;25.68;100.00;102210.44;5075073;28;45479;-68
2021/08/24 09:05:47;;;;;;;;;8.00;7.00;;;;;25.85;100.00;102213.06;5075843;28;45365;-68
2021/08/24 09:08:15;;;;;;;;;11.00;10.25;;;;;26.08;100.00;102210.91;5091978;27;45514;-68
2021/08/24 09:10:51;;;;;;;;;9.50;9.25;;;;;26.37;100.00;102214.66;5075253;28;45507;-70
2021/08/24 09:13:40;;;;;;;;;6.25;6.00;;;;;26.66;100.00;102210.28;5075411;28;45360;-70
2021/08/24 09:16:08;;;;;;;;;6.50;6.50;;;;;26.99;100.00;102208.34;5014969;28;45506;-69
2021/08/24 09:18:44;;;;;;;;;7.50;7.00;;;;;27.30;100.00;102207.31;5014649;28;45530;-69
2021/08/24 09:21:14;;;;;;;;;7.00;6.00;;;;;27.64;100.00;102197.22;5015021;28;45339;-70
2021/08/24 09:23:39;;;;;;;;;6.25;6.25;;;;;28.06;100.00;102197.19;5014714;28;45436;-70
2021/08/24 09:26:23;;;;;;;;;9.00;8.00;;;;;28.50;100.00;102201.47;5015116;28;45428;-70
2021/08/24 09:28:53;;;;;;;;;8.75;7.00;;;;;29.00;100.00;102197.22;5066249;28;46274;-69
2021/08/24 09:31:21;;;;;;;;;7.50;7.50;;;;;29.50;100.00;102199.09;5046515;28;45490;-69
2021/08/24 09:33:47;;;;;;;;;7.00;6.75;;;;;30.06;100.00;102193.31;5032529;28;45508;-69
2021/08/24 09:36:13;;;;;;;;;6.00;6.00;;;;;30.60;100.00;102195.56;5055276;28;45426;-69
2021/08/24 09:38:54;;;;;;;;;7.00;6.00;;;;;31.27;100.00;102191.28;5054489;28;46688;-69
2021/08/24 09:41:30;;;;;;;;;5.75;4.50;;;;;32.13;100.00;102197.88;5041275;28;45412;-69
2021/08/24 09:43:58;;;;;;;;;6.50;5.75;;;;;32.92;100.00;102191.22;5054795;28;45379;-70
2021/08/24 09:46:28;;;;;;;;;9.00;6.50;;;;;33.68;97.12;102175.53;5054943;28;45471;-71
2021/08/24 09:49:04;;;;;;;;;6.25;5.25;;;;;34.46;92.35;102187.47;5054186;28;47227;-69
2021/08/24 09:51:52;;;;;;;;;6.25;6.00;;;;;35.25;89.42;102179.91;5054165;28;45543;-71
2021/08/24 09:54:20;;;;;;;;;7.00;6.00;;;;;35.81;85.55;102176.28;5075989;27;45329;-70
2021/08/24 09:57:11;;;;;;;;;7.25;6.00;;;;;35.96;81.74;102163.91;5077308;27;45474;-70
2021/08/24 09:59:44;;;;;;;;;4.50;4.00;;;;;35.73;81.33;102174.31;5093270;27;45290;-70
2021/08/24 10:02:35;;;;;;;;;6.00;5.00;;;;;35.03;80.50;102181.13;5080581;27;45575;-70
2021/08/24 10:05:02;;;;;;;;;5.50;5.50;;;;;34.38;80.60;102175.44;5095178;27;45458;-70
2021/08/24 10:07:34;;;;;;;;;3.00;3.00;;;;;34.01;80.83;102166.25;5080658;27;45390;-70
2021/08/24 10:09:59;;;;;;;;;4.75;4.50;;;;;33.74;80.47;102164.16;5080771;27;46949;-71
2021/08/24 10:12:33;;;;;;;;;6.00;5.50;;;;;33.36;80.60;102171.13;5093812;27;45280;-70
2021/08/24 10:15:17;;;;;;;;;7.00;6.50;;;;;33.26;82.23;102162.06;5080566;27;45436;-71
2021/08/24 10:17:43;;;;;;;;;6.00;5.00;;;;;34.03;82.85;102173.25;5101054;27;45393;-70
2021/08/24 10:20:30;;;;;;;;;4.50;4.00;;;;;35.02;79.71;102181.28;5086120;27;46322;-71
2021/08/24 10:22:56;;;;;;;;;5.00;5.00;;;;;35.88;76.24;102159.22;5091011;27;45368;-70
2021/08/24 10:25:30;;;;;;;;;4.00;4.00;;;;;36.73;74.13;102168.75;5094491;27;45265;-71
2021/08/24 10:28:25;;;;;;;;;4.75;4.75;;;;;37.52;71.61;102155.97;5080276;27;45477;-68
2021/08/24 10:30:52;;;;;;;;;3.00;3.00;;;;;38.27;58.66;102156.94;5084320;27;45436;-68
2021/08/24 10:33:26;;;;;;;;;5.00;5.00;;;;;37.72;63.65;102159.31;5100620;27;45366;-69
2021/08/24 10:36:06;;;;;;;;;4.00;4.00;;;;;37.35;63.07;102146.91;5096597;27;45336;-70
2021/08/24 10:38:56;;;;;;;;;3.50;3.50;;;;;37.01;62.60;102161.31;5099269;27;45391;-70
2021/08/24 10:41:32;;;;;;;;;4.00;4.00;;;;;37.85;61.63;102160.56;5099960;27;46662;-70
2021/08/24 10:44:02;;;;;;;;;3.00;3.00;;;;;38.83;58.23;102147.88;5099772;27;45576;-69
2021/08/24 10:46:28;;;;;;;;;5.25;4.50;;;;;39.97;57.50;102149.38;5079866;27;45227;-69
2021/08/24 10:48:55;;;;;;;;;3.25;3.25;;;;;40.43;53.15;102149.41;5080098;27;45334;-70
2021/08/24 10:51:38;;;;;;;;;3.75;3.25;;;;;39.00;52.08;102139.66;5079297;27;46838;-69
2021/08/24 10:54:29;;;;;;;;;3.50;2.50;;;;;39.01;52.52;102155.88;5079565;27;45383;-70
2021/08/24 10:57:12;;;;;;;;;2.00;1.00;;;;;39.76;51.05;102158.19;5083285;27;45319;-69
2021/08/24 10:59:52;;;;;;;;;3.00;2.00;;;;;40.66;50.92;102156.56;5100466;27;45357;-70
2021/08/24 11:02:46;;;;;;;;;1.00;1.00;;;;;40.47;46.24;102153.47;5087234;27;45438;-70
2021/08/24 11:05:45;;;;;;;;;3.00;3.00;;;;;39.99;45.76;102158.25;5096482;27;45353;-70
2021/08/24 11:08:42;;;;;;;;;2.00;2.00;;;;;39.39;45.61;102157.00;5093997;27;45381;-70
2021/08/24 11:11:38;;;;;;;;;2.50;2.00;;;;;39.98;45.07;102151.94;5088727;27;45485;-69
2021/08/24 11:14:25;;;;;;;;;3.00;3.00;;;;;41.29;43.79;102147.03;5085821;27;45542;-69
2021/08/24 11:17:01;;;;;;;;;4.75;3.50;;;;;42.32;41.30;102147.81;5084318;27;45545;-70
2021/08/24 11:19:46;;;;;;;;;4.00;4.00;;;;;42.99;41.31;102144.59;5079413;27;45266;-69
2021/08/24 11:22:57;;;;;;;;;3.00;3.00;;;;;44.00;41.03;102138.28;5082239;27;45621;-70